createdAt,value
2023-05-20T00:00:50.511Z,12.40
2023-05-20T00:03:17.747Z,12.40
2023-05-20T00:05:44.893Z,12.30
2023-05-20T00:08:11.908Z,12.40
2023-05-20T00:10:39.261Z,12.30
2023-05-20T00:13:06.631Z,12.40
2023-05-20T00:15:35.006Z,12.40
2023-05-20T00:18:02.853Z,12.30
2023-05-20T00:20:30.447Z,12.30
2023-05-20T00:22:57.432Z,12.30
2023-05-20T00:25:24.323Z,12.30
2023-05-20T00:27:51.108Z,12.30
2023-05-20T00:30:18.574Z,12.30
2023-05-20T00:32:45.651Z,12.30
2023-05-20T00:35:13.140Z,12.20
2023-05-20T00:37:40.112Z,12.20
2023-05-20T00:40:08.527Z,12.20
2023-05-20T00:42:35.364Z,12.10
2023-05-20T00:45:02.485Z,12.10
2023-05-20T00:47:33.111Z,12.00
2023-05-20T00:50:00.906Z,12.00
2023-05-20T00:52:30.804Z,12.00
2023-05-20T00:54:59.440Z,12.00
2023-05-20T00:57:26.577Z,12.00
2023-05-20T00:59:54.054Z,11.90
2023-05-20T01:02:21.445Z,11.90
2023-05-20T01:04:48.649Z,11.90
2023-05-20T01:07:17.541Z,11.80
2023-05-20T01:09:44.959Z,11.80
2023-05-20T01:12:17.989Z,11.80
2023-05-20T01:14:50.763Z,11.70
2023-05-20T01:17:21.219Z,11.70
2023-05-20T01:19:49.065Z,11.70
2023-05-20T01:22:16.334Z,11.60
2023-05-20T01:24:45.830Z,11.50
2023-05-20T01:27:13.668Z,11.60
2023-05-20T01:29:42.819Z,11.50
2023-05-20T01:32:38.411Z,11.40
2023-05-20T01:35:06.708Z,11.40
2023-05-20T01:37:40.811Z,11.30
2023-05-20T01:40:09.522Z,11.30
2023-05-20T01:42:37.252Z,11.30
2023-05-20T01:45:05.011Z,11.20
2023-05-20T01:47:31.917Z,11.20
2023-05-20T01:49:59.070Z,11.10
2023-05-20T01:52:26.565Z,11.10
2023-05-20T01:54:53.638Z,11.10
2023-05-20T01:57:21.886Z,11.10
2023-05-20T01:59:49.271Z,11.10
2023-05-20T02:02:16.721Z,11.00
2023-05-20T02:04:48.156Z,11.00
2023-05-20T02:07:21.631Z,11.00
2023-05-20T02:09:49.824Z,11.00
2023-05-20T02:12:17.082Z,10.90
2023-05-20T02:14:45.677Z,10.90
2023-05-20T02:17:16.763Z,10.90
2023-05-20T02:19:44.873Z,10.90
2023-05-20T02:22:12.262Z,10.80
2023-05-20T02:24:39.317Z,10.80
2023-05-20T02:27:07.063Z,10.80
2023-05-20T02:29:34.218Z,10.70
2023-05-20T02:32:01.290Z,10.70
2023-05-20T02:34:30.286Z,10.70
2023-05-20T02:36:57.538Z,10.70
2023-05-20T02:39:24.503Z,10.70
2023-05-20T02:41:51.349Z,10.70
2023-05-20T02:44:18.257Z,10.70
2023-05-20T02:46:45.092Z,10.60
2023-05-20T02:49:11.908Z,10.50
2023-05-20T02:51:40.181Z,10.50
2023-05-20T02:54:07.321Z,10.40
2023-05-20T02:56:34.343Z,10.30
2023-05-20T02:59:01.681Z,10.30
2023-05-20T03:01:29.190Z,10.20
2023-05-20T03:03:56.308Z,10.30
2023-05-20T03:06:23.209Z,10.40
2023-05-20T03:08:49.951Z,10.40
2023-05-20T03:11:17.077Z,10.40
2023-05-20T03:13:43.905Z,10.40
2023-05-20T03:16:13.280Z,10.40
2023-05-20T03:18:40.913Z,10.40
2023-05-20T03:21:07.872Z,10.40
2023-05-20T03:23:35.284Z,10.40
2023-05-20T03:26:03.399Z,10.40
2023-05-20T03:28:30.300Z,10.30
2023-05-20T03:30:57.210Z,10.30
2023-05-20T03:33:26.410Z,10.40
2023-05-20T03:35:53.330Z,10.30
2023-05-20T03:38:20.299Z,10.40
2023-05-20T03:40:47.324Z,10.40
2023-05-20T03:43:14.430Z,10.40
2023-05-20T03:45:41.337Z,10.30
2023-05-20T03:48:08.479Z,10.40
2023-05-20T03:50:35.709Z,10.40
2023-05-20T03:53:02.805Z,10.40
2023-05-20T03:55:29.566Z,10.40
2023-05-20T03:57:56.924Z,10.50
2023-05-20T04:00:24.424Z,10.50
2023-05-20T04:02:51.590Z,10.50
2023-05-20T04:05:18.611Z,10.50
2023-05-20T04:07:45.700Z,10.50
2023-05-20T04:10:13.005Z,10.50
2023-05-20T04:12:40.117Z,10.60
2023-05-20T04:15:07.805Z,10.70
2023-05-20T04:17:37.633Z,10.70
2023-05-20T04:20:07.726Z,10.70
2023-05-20T04:22:35.228Z,10.70
2023-05-20T04:25:03.667Z,11.00
2023-05-20T04:27:31.516Z,11.80
2023-05-20T04:29:59.112Z,11.80
2023-05-20T04:32:27.030Z,11.50
2023-05-20T04:34:56.272Z,11.20
2023-05-20T04:37:23.201Z,11.20
2023-05-20T04:39:51.368Z,12.50
2023-05-20T04:42:19.283Z,12.50
2023-05-20T04:44:46.478Z,12.20
2023-05-20T04:47:14.020Z,11.80
2023-05-20T04:49:41.255Z,11.50
2023-05-20T04:52:08.266Z,11.50
2023-05-20T04:54:35.238Z,11.60
2023-05-20T04:57:02.866Z,11.60
2023-05-20T04:59:29.671Z,11.70
2023-05-20T05:01:59.899Z,11.60
2023-05-20T05:04:26.759Z,11.50
2023-05-20T05:06:53.629Z,11.60
2023-05-20T05:09:20.451Z,11.70
2023-05-20T05:11:47.198Z,11.80
2023-05-20T05:14:14.198Z,11.80
2023-05-20T05:16:40.933Z,12.00
2023-05-20T05:19:08.870Z,12.00
2023-05-20T05:21:36.402Z,11.80
2023-05-20T05:24:03.352Z,12.00
2023-05-20T05:26:30.215Z,12.00
2023-05-20T05:28:57.432Z,11.80
2023-05-20T05:31:24.442Z,11.70
2023-05-20T05:33:51.509Z,11.50
2023-05-20T05:36:18.565Z,11.60
2023-05-20T05:38:45.774Z,11.50
2023-05-20T05:41:12.771Z,11.50
2023-05-20T05:43:39.840Z,11.60
2023-05-20T05:46:06.810Z,11.50
2023-05-20T05:48:33.899Z,11.60
2023-05-20T05:51:00.812Z,11.70
2023-05-20T05:53:29.954Z,11.70
2023-05-20T05:55:56.987Z,11.70
2023-05-20T05:58:24.253Z,11.70
2023-05-20T06:00:54.843Z,11.70
2023-05-20T06:03:22.183Z,11.60
2023-05-20T06:05:49.071Z,11.60
2023-05-20T06:08:16.234Z,11.70
2023-05-20T06:10:49.091Z,11.70
2023-05-20T06:13:16.257Z,11.80
2023-05-20T06:15:43.369Z,12.00
2023-05-20T06:18:10.334Z,12.00
2023-05-20T06:20:37.481Z,12.10
2023-05-20T06:23:04.513Z,12.30
2023-05-20T06:25:31.310Z,12.40
2023-05-20T06:27:58.241Z,12.70
2023-05-20T06:30:25.276Z,12.60
2023-05-20T06:32:52.371Z,12.80
2023-05-20T06:35:19.320Z,13.10
2023-05-20T06:37:46.375Z,13.40
2023-05-20T06:40:13.414Z,14.60
2023-05-20T06:42:40.240Z,16.80
2023-05-20T06:45:08.039Z,18.20
2023-05-20T06:47:34.820Z,19.20
2023-05-20T06:50:01.607Z,20.00
2023-05-20T06:52:28.575Z,18.40
2023-05-20T06:54:55.326Z,19.00
2023-05-20T06:57:22.517Z,18.50
2023-05-20T06:59:49.770Z,18.50
2023-05-20T07:02:16.680Z,18.70
2023-05-20T07:04:43.711Z,17.90
2023-05-20T07:07:10.710Z,18.80
2023-05-20T07:09:37.914Z,19.00
2023-05-20T07:12:04.894Z,18.90
2023-05-20T07:14:32.109Z,19.10
2023-05-20T07:16:59.034Z,19.20
2023-05-20T07:19:26.114Z,19.50
2023-05-20T07:21:53.237Z,19.10
2023-05-20T07:24:20.036Z,18.00
2023-05-20T07:26:46.854Z,17.80
2023-05-20T07:29:13.800Z,18.10
2023-05-20T07:31:40.715Z,17.10
2023-05-20T07:34:08.040Z,17.60
2023-05-20T07:36:35.100Z,17.80
2023-05-20T07:39:04.388Z,18.80
2023-05-20T07:41:33.131Z,19.90
2023-05-20T07:44:02.272Z,17.70
2023-05-20T07:46:29.563Z,17.20
2023-05-20T07:48:56.656Z,17.10
2023-05-20T07:51:23.855Z,17.70
2023-05-20T07:53:50.664Z,17.60
2023-05-20T07:56:18.044Z,16.60
2023-05-20T07:58:53.149Z,17.00
2023-05-20T08:01:20.790Z,17.10
2023-05-20T08:03:47.861Z,17.50
2023-05-20T08:06:14.983Z,17.30
2023-05-20T08:08:43.267Z,17.60
2023-05-20T08:11:10.652Z,18.20
2023-05-20T08:13:37.484Z,17.00
2023-05-20T08:16:06.063Z,17.30
2023-05-20T08:18:35.055Z,17.00
2023-05-20T08:21:02.109Z,16.60
2023-05-20T08:23:29.187Z,16.30
2023-05-20T08:25:57.484Z,16.30
2023-05-20T08:28:24.383Z,16.30
2023-05-20T08:30:52.175Z,16.70
2023-05-20T08:33:19.453Z,16.70
2023-05-20T08:35:46.604Z,16.50
2023-05-20T08:38:13.672Z,17.00
2023-05-20T08:40:40.761Z,17.10
2023-05-20T08:43:07.756Z,17.30
2023-05-20T08:45:37.965Z,17.70
2023-05-20T08:48:05.401Z,17.60
2023-05-20T08:50:32.292Z,16.90
2023-05-20T08:53:00.755Z,16.70
2023-05-20T08:55:33.826Z,16.60
2023-05-20T08:58:01.481Z,16.40
2023-05-20T09:00:28.940Z,16.40
2023-05-20T09:02:58.056Z,16.30
2023-05-20T09:05:27.422Z,16.60
2023-05-20T09:08:08.205Z,17.00
2023-05-20T09:10:36.632Z,17.90
2023-05-20T09:13:04.549Z,18.00
2023-05-20T09:15:32.691Z,17.90
2023-05-20T09:18:08.046Z,17.50
2023-05-20T09:20:37.317Z,17.90
2023-05-20T09:23:09.337Z,18.20
2023-05-20T09:25:37.490Z,17.40
2023-05-20T09:28:08.917Z,17.40
2023-05-20T09:30:36.089Z,16.90
2023-05-20T09:33:05.973Z,16.80
2023-05-20T09:35:37.816Z,16.80
2023-05-20T09:38:08.005Z,17.90
2023-05-20T09:40:37.736Z,17.40
2023-05-20T09:43:08.938Z,17.20
2023-05-20T09:45:36.234Z,16.80
2023-05-20T09:48:05.681Z,16.60
2023-05-20T09:50:33.401Z,16.50
2023-05-20T09:53:03.863Z,16.60
2023-05-20T09:55:32.342Z,16.50
2023-05-20T09:58:02.651Z,16.90
2023-05-20T10:00:29.728Z,17.10
2023-05-20T10:02:57.435Z,17.90
2023-05-20T10:05:36.917Z,17.60
2023-05-20T10:08:13.631Z,17.80
2023-05-20T10:10:45.226Z,18.40
2023-05-20T10:13:40.567Z,17.80
2023-05-20T10:16:16.587Z,17.60
2023-05-20T10:19:01.665Z,18.00
2023-05-20T10:21:28.718Z,17.40
2023-05-20T10:24:09.549Z,17.10
2023-05-20T10:26:42.044Z,17.60
2023-05-20T10:29:20.004Z,17.70
2023-05-20T10:31:51.587Z,17.30
2023-05-20T10:34:22.904Z,17.00
2023-05-20T10:36:56.009Z,17.00
2023-05-20T10:39:30.604Z,16.70
2023-05-20T10:42:11.443Z,16.90
2023-05-20T10:44:45.975Z,16.90
2023-05-20T10:49:47.520Z,17.20
2023-05-20T10:52:16.317Z,17.20
2023-05-20T10:54:48.746Z,17.20
2023-05-20T10:57:18.746Z,17.20
2023-05-20T10:59:47.559Z,17.50
2023-05-20T11:02:16.574Z,17.50
2023-05-20T11:04:44.816Z,17.50
2023-05-20T11:07:11.867Z,17.10
2023-05-20T11:09:39.833Z,16.90
2023-05-20T11:12:07.530Z,17.10
2023-05-20T11:14:35.965Z,16.90
2023-05-20T11:17:03.540Z,17.20
2023-05-20T11:19:30.972Z,17.30
2023-05-20T11:21:58.225Z,17.00
2023-05-20T11:24:27.553Z,16.70
2023-05-20T11:26:56.222Z,16.90
2023-05-20T11:29:23.924Z,17.00
2023-05-20T11:31:52.154Z,17.00
2023-05-20T11:34:26.420Z,16.90
2023-05-20T11:36:59.156Z,16.80
2023-05-20T11:39:30.079Z,17.10
2023-05-20T11:41:58.810Z,16.90
2023-05-20T11:44:26.503Z,17.10
2023-05-20T11:47:01.013Z,17.10
2023-05-20T11:49:28.421Z,17.00
2023-05-20T11:51:56.671Z,17.40
2023-05-20T11:54:24.826Z,17.40
2023-05-20T11:56:51.716Z,17.30
2023-05-20T11:59:18.609Z,17.20
2023-05-20T12:01:45.954Z,17.60
2023-05-20T12:04:16.653Z,17.50
2023-05-20T12:06:44.193Z,17.70
2023-05-20T12:09:11.526Z,17.30
2023-05-20T12:11:41.197Z,17.10
2023-05-20T12:14:09.458Z,17.30
2023-05-20T12:16:37.988Z,17.20
2023-05-20T12:19:05.445Z,17.50
2023-05-20T12:21:32.837Z,17.30
2023-05-20T12:24:00.094Z,17.40
2023-05-20T12:26:28.577Z,17.50
2023-05-20T12:28:56.218Z,17.40
2023-05-20T12:31:23.474Z,17.50
2023-05-20T12:33:51.158Z,17.50
2023-05-20T12:36:19.510Z,17.00
2023-05-20T12:38:47.141Z,17.20
2023-05-20T12:41:14.356Z,17.30
2023-05-20T12:43:41.518Z,17.10
2023-05-20T12:46:08.878Z,17.40
2023-05-20T12:48:37.414Z,17.40
2023-05-20T12:51:05.037Z,18.00
2023-05-20T12:53:32.424Z,18.10
2023-05-20T12:55:59.417Z,17.70
2023-05-20T12:58:26.186Z,17.90
2023-05-20T13:00:53.236Z,17.30
2023-05-20T13:03:20.202Z,17.50
2023-05-20T13:05:47.145Z,17.80
2023-05-20T13:08:15.083Z,17.90
2023-05-20T13:10:42.055Z,17.70
2023-05-20T13:13:08.905Z,17.80
2023-05-20T13:15:36.252Z,17.80
2023-05-20T13:18:06.276Z,17.50
2023-05-20T13:20:33.367Z,17.60
2023-05-20T13:23:00.551Z,17.90
2023-05-20T13:25:27.995Z,17.50
2023-05-20T13:27:56.090Z,17.60
2023-05-20T13:30:23.322Z,17.50
2023-05-20T13:32:50.169Z,17.50
2023-05-20T13:35:17.512Z,17.50
2023-05-20T13:37:45.082Z,17.50
2023-05-20T13:40:12.654Z,17.80
2023-05-20T13:42:39.908Z,18.00
2023-05-20T13:45:07.661Z,18.00
2023-05-20T13:47:34.721Z,17.90
2023-05-20T13:50:03.397Z,17.50
2023-05-20T13:52:31.078Z,17.50
2023-05-20T13:54:58.353Z,17.80
2023-05-20T13:57:26.123Z,17.60
2023-05-20T13:59:55.659Z,17.50
2023-05-20T14:02:24.813Z,17.70
2023-05-20T14:04:53.509Z,17.50
2023-05-20T14:07:22.447Z,17.60
2023-05-20T14:09:49.965Z,17.80
2023-05-20T14:12:17.880Z,17.60
2023-05-20T14:14:47.322Z,17.50
2023-05-20T14:17:15.271Z,17.50
2023-05-20T14:19:42.787Z,17.60
2023-05-20T14:22:11.172Z,17.80
2023-05-20T14:24:38.173Z,17.70
2023-05-20T14:27:05.651Z,17.40
2023-05-20T14:29:33.068Z,17.30
2023-05-20T14:32:01.449Z,17.30
2023-05-20T14:34:28.281Z,17.80
2023-05-20T14:36:55.388Z,17.60
2023-05-20T14:39:22.207Z,17.60
2023-05-20T14:41:49.100Z,17.80
2023-05-20T14:44:16.212Z,17.60
2023-05-20T14:46:43.282Z,17.50
2023-05-20T14:49:10.184Z,17.70
2023-05-20T14:51:37.233Z,17.50
2023-05-20T14:54:04.887Z,17.30
2023-05-20T14:56:31.816Z,17.40
2023-05-20T14:58:58.822Z,17.20
2023-05-20T15:01:25.654Z,17.30
2023-05-20T15:03:52.518Z,17.20
2023-05-20T15:06:19.697Z,17.10
2023-05-20T15:08:46.744Z,17.00
2023-05-20T15:11:13.580Z,17.10
2023-05-20T15:13:41.006Z,17.00
2023-05-20T15:16:08.027Z,17.20
2023-05-20T15:18:34.968Z,17.20
2023-05-20T15:21:02.174Z,17.10
2023-05-20T15:23:29.047Z,17.00
2023-05-20T15:25:58.413Z,17.20
2023-05-20T15:28:25.525Z,17.10
2023-05-20T15:30:55.053Z,16.90
2023-05-20T15:33:22.618Z,16.90
2023-05-20T15:35:49.904Z,16.80
2023-05-20T15:38:17.491Z,16.80
2023-05-20T15:40:44.335Z,16.80
2023-05-20T15:43:11.303Z,16.80
2023-05-20T15:45:41.459Z,17.00
2023-05-20T15:48:08.863Z,16.80
2023-05-20T15:50:37.387Z,16.60
2023-05-20T15:53:08.560Z,16.70
2023-05-20T15:55:35.797Z,16.70
2023-05-20T15:58:03.068Z,16.60
2023-05-20T16:00:29.950Z,16.60
2023-05-20T16:02:56.936Z,16.40
2023-05-20T16:05:25.704Z,16.40
2023-05-20T16:07:57.039Z,16.40
2023-05-20T16:10:26.027Z,16.40
2023-05-20T16:12:53.306Z,16.40
2023-05-20T16:15:20.375Z,16.30
2023-05-20T16:17:47.524Z,16.30
2023-05-20T16:20:14.573Z,16.20
2023-05-20T16:22:41.774Z,16.20
2023-05-20T16:25:10.974Z,16.20
2023-05-20T16:27:38.043Z,16.20
2023-05-20T16:30:07.696Z,16.20
2023-05-20T16:32:34.577Z,16.20
2023-05-20T16:35:02.212Z,16.20
2023-05-20T16:37:29.396Z,16.20
2023-05-20T16:39:56.689Z,16.30
2023-05-20T16:42:24.531Z,16.40
2023-05-20T16:44:52.679Z,16.40
2023-05-20T16:47:19.822Z,16.40
2023-05-20T16:49:46.712Z,16.50
2023-05-20T16:52:13.783Z,16.30
2023-05-20T16:54:40.727Z,16.40
2023-05-20T16:57:08.152Z,16.30
2023-05-20T16:59:35.287Z,16.30
2023-05-20T17:02:02.151Z,16.10
2023-05-20T17:04:28.936Z,16.10
2023-05-20T17:06:57.032Z,16.20
2023-05-20T17:09:23.845Z,16.20
2023-05-20T17:11:51.917Z,16.20
2023-05-20T17:14:18.740Z,16.20
2023-05-20T17:16:45.922Z,16.10
2023-05-20T17:19:12.973Z,16.00
2023-05-20T17:21:39.884Z,16.10
2023-05-20T17:24:07.175Z,16.00
2023-05-20T17:26:34.095Z,16.10
2023-05-20T17:29:01.929Z,16.00
2023-05-20T17:31:28.818Z,15.90
2023-05-20T17:33:56.397Z,16.00
2023-05-20T17:36:24.127Z,16.20
2023-05-20T17:38:51.569Z,16.10
2023-05-20T17:41:18.668Z,16.10
2023-05-20T17:43:46.369Z,16.00
2023-05-20T17:46:13.238Z,16.00
2023-05-20T17:48:44.757Z,16.00
2023-05-20T17:51:11.717Z,16.00
2023-05-20T17:53:38.491Z,15.90
2023-05-20T17:56:06.169Z,15.90
2023-05-20T17:58:34.287Z,15.90
2023-05-20T18:01:01.435Z,15.80
2023-05-20T18:03:29.470Z,15.90
2023-05-20T18:05:56.786Z,15.80
2023-05-20T18:08:25.451Z,15.80
2023-05-20T18:10:52.725Z,15.80
2023-05-20T18:13:22.612Z,15.80
2023-05-20T18:15:49.495Z,15.80
2023-05-20T18:18:16.567Z,15.80
2023-05-20T18:20:43.689Z,15.80
2023-05-20T18:23:10.592Z,15.80
2023-05-20T18:25:38.610Z,15.80
2023-05-20T18:28:08.972Z,15.80
2023-05-20T18:30:35.966Z,15.80
2023-05-20T18:33:03.111Z,15.80
2023-05-20T18:35:30.228Z,15.80
2023-05-20T18:37:57.048Z,15.70
2023-05-20T18:40:23.996Z,15.80
2023-05-20T18:42:50.982Z,15.80
2023-05-20T18:45:18.080Z,15.70
2023-05-20T18:47:45.338Z,15.70
2023-05-20T18:50:12.524Z,15.70
2023-05-20T18:52:39.345Z,15.70
2023-05-20T18:55:07.049Z,15.70
2023-05-20T18:57:33.826Z,15.70
2023-05-20T19:00:02.515Z,15.70
2023-05-20T19:02:29.714Z,15.60
2023-05-20T19:04:56.663Z,15.70
2023-05-20T19:07:23.701Z,15.70
2023-05-20T19:09:52.219Z,15.70
2023-05-20T19:12:19.042Z,15.60
2023-05-20T19:14:46.598Z,15.60
2023-05-20T19:17:14.267Z,15.60
2023-05-20T19:19:41.228Z,15.60
2023-05-20T19:22:08.111Z,15.60
2023-05-20T19:24:35.517Z,15.60
2023-05-20T19:27:03.185Z,15.60
2023-05-20T19:29:30.287Z,15.60
2023-05-20T19:31:57.384Z,15.60
2023-05-20T19:34:24.453Z,15.60
2023-05-20T19:36:51.800Z,15.60
2023-05-20T19:39:19.868Z,15.60
2023-05-20T19:41:47.170Z,15.60
2023-05-20T19:44:14.348Z,15.50
2023-05-20T19:46:41.869Z,15.60
2023-05-20T19:49:08.802Z,15.50
2023-05-20T19:51:36.082Z,15.50
2023-05-20T19:54:02.997Z,15.50
2023-05-20T19:56:32.764Z,15.40
2023-05-20T19:59:01.709Z,15.40
2023-05-20T20:01:29.285Z,15.30
2023-05-20T20:03:57.857Z,15.30
2023-05-20T20:06:25.130Z,15.20
2023-05-20T20:08:52.894Z,15.20
2023-05-20T20:11:21.892Z,15.20
2023-05-20T20:13:49.353Z,15.20
2023-05-20T20:16:17.513Z,15.10
2023-05-20T20:18:45.301Z,15.10
2023-05-20T20:21:15.050Z,15.10
2023-05-20T20:23:43.316Z,15.20
2023-05-20T20:26:11.852Z,15.10
2023-05-20T20:28:38.860Z,15.10
2023-05-20T20:31:05.766Z,15.10
2023-05-20T20:33:32.767Z,15.10
2023-05-20T20:35:59.632Z,15.00
2023-05-20T20:38:26.416Z,15.00
2023-05-20T20:40:55.125Z,14.90
2023-05-20T20:43:22.934Z,14.90
2023-05-20T20:45:53.176Z,14.90
2023-05-20T20:48:20.405Z,14.80
2023-05-20T20:50:48.010Z,14.80
2023-05-20T20:53:18.452Z,14.70
2023-05-20T20:55:48.421Z,14.70
2023-05-20T20:58:15.814Z,14.70
2023-05-20T21:00:44.638Z,14.70
2023-05-20T21:03:12.848Z,14.60
2023-05-20T21:05:39.968Z,14.60
2023-05-20T21:08:08.582Z,14.60
2023-05-20T21:10:37.398Z,14.60
2023-05-20T21:13:04.297Z,14.60
2023-05-20T21:15:31.297Z,14.60
2023-05-20T21:17:58.541Z,14.60
2023-05-20T21:20:25.480Z,14.60
2023-05-20T21:22:52.421Z,14.60
2023-05-20T21:25:19.248Z,14.60
2023-05-20T21:27:46.168Z,14.50
2023-05-20T21:30:13.383Z,14.50
2023-05-20T21:32:40.361Z,14.50
2023-05-20T21:35:08.212Z,14.50
2023-05-20T21:37:35.362Z,14.50
2023-05-20T21:40:02.217Z,14.40
2023-05-20T21:42:29.085Z,14.50
2023-05-20T21:44:56.009Z,14.50
2023-05-20T21:47:22.866Z,14.40
2023-05-20T21:49:50.267Z,14.40
2023-05-20T21:52:17.130Z,14.40
2023-05-20T21:54:43.987Z,14.40
2023-05-20T21:57:11.221Z,14.40
2023-05-20T21:59:38.114Z,14.40
2023-05-20T22:02:05.067Z,14.30
2023-05-20T22:04:33.601Z,14.40
2023-05-20T22:07:00.830Z,14.30
2023-05-20T22:09:27.798Z,14.30
2023-05-20T22:11:55.286Z,14.30
2023-05-20T22:14:22.285Z,14.30
2023-05-20T22:16:49.292Z,14.20
2023-05-20T22:19:17.447Z,14.20
2023-05-20T22:24:15.152Z,14.10
2023-05-20T22:26:42.129Z,14.10
2023-05-20T22:29:08.990Z,14.10
2023-05-20T22:31:38.485Z,14.00
2023-05-20T22:34:05.715Z,14.00
2023-05-20T22:36:36.565Z,13.90
2023-05-20T22:39:04.510Z,13.90
2023-05-20T22:41:31.631Z,13.90
2023-05-20T22:44:02.765Z,13.90
2023-05-20T22:46:30.417Z,13.80
2023-05-20T22:48:58.812Z,13.80
2023-05-20T22:51:25.712Z,13.70
2023-05-20T22:53:52.627Z,13.70
2023-05-20T22:56:20.039Z,13.70
2023-05-20T22:58:46.842Z,13.70
2023-05-20T23:01:16.640Z,13.70
2023-05-20T23:03:46.920Z,13.60
2023-05-20T23:06:13.766Z,13.60
2023-05-20T23:08:42.795Z,13.60
2023-05-20T23:11:10.027Z,13.60
2023-05-20T23:13:37.292Z,13.60
2023-05-20T23:16:05.942Z,13.60
2023-05-20T23:21:03.488Z,13.50
2023-05-20T23:23:32.045Z,13.40
2023-05-20T23:26:00.236Z,13.40
2023-05-20T23:28:27.229Z,13.40
2023-05-20T23:30:54.663Z,13.40
2023-05-20T23:33:25.303Z,13.40
2023-05-20T23:35:52.945Z,13.30
2023-05-20T23:38:19.766Z,13.40
2023-05-20T23:40:46.739Z,13.30
2023-05-20T23:43:13.776Z,13.30
2023-05-20T23:45:40.841Z,13.30
2023-05-20T23:48:13.126Z,13.20
2023-05-20T23:50:43.457Z,13.20
2023-05-20T23:53:10.507Z,13.20
2023-05-20T23:55:38.392Z,13.10
2023-05-20T23:58:07.645Z,13.10
